createdAt,value
2018-02-20T00:01:08.101Z,54.27
2018-02-20T00:03:35.684Z,53.80
2018-02-20T00:06:03.227Z,51.73
2018-02-20T00:08:30.812Z,55.93
2018-02-20T00:10:58.359Z,52.73
2018-02-20T00:13:26.049Z,53.37
2018-02-20T00:15:53.649Z,54.13
2018-02-20T00:18:21.196Z,55.73
2018-02-20T00:20:48.736Z,56.33
2018-02-20T00:23:16.302Z,53.90
2018-02-20T00:25:43.881Z,54.53
2018-02-20T00:28:11.460Z,54.53
2018-02-20T00:30:39.853Z,50.87
2018-02-20T00:33:07.428Z,53.47
2018-02-20T00:35:34.960Z,49.67
2018-02-20T00:38:03.334Z,50.27
2018-02-20T00:40:30.880Z,50.60
2018-02-20T00:42:58.457Z,51.77
2018-02-20T00:45:26.816Z,51.43
2018-02-20T00:47:55.161Z,48.90
2018-02-20T00:50:22.746Z,55.37
2018-02-20T00:52:50.299Z,47.73
2018-02-20T00:55:17.877Z,52.93
2018-02-20T00:57:45.428Z,54.50
2018-02-20T01:00:13.037Z,50.43
2018-02-20T01:02:40.617Z,52.50
2018-02-20T01:05:08.320Z,51.83
2018-02-20T01:07:35.899Z,52.17
2018-02-20T01:10:03.438Z,54.03
2018-02-20T01:12:31.752Z,49.03
2018-02-20T01:15:00.134Z,50.30
2018-02-20T01:17:27.679Z,51.60
2018-02-20T01:19:55.380Z,49.67
2018-02-20T01:22:22.977Z,50.20
2018-02-20T01:24:50.529Z,48.50
2018-02-20T01:27:18.105Z,56.10
2018-02-20T01:29:45.732Z,48.53
2018-02-20T01:32:13.321Z,52.07
2018-02-20T01:34:41.635Z,57.10
2018-02-20T01:37:09.208Z,50.70
2018-02-20T01:39:36.748Z,53.13
2018-02-20T01:42:04.269Z,53.60
2018-02-20T01:44:31.835Z,51.00
2018-02-20T01:46:59.384Z,52.73
2018-02-20T01:49:26.961Z,50.43
2018-02-20T01:51:54.548Z,52.37
2018-02-20T01:54:22.125Z,54.50
2018-02-20T01:56:49.668Z,51.67
2018-02-20T01:59:17.240Z,46.77
2018-02-20T02:01:44.817Z,48.30
2018-02-20T02:04:12.364Z,48.07
2018-02-20T02:06:40.835Z,44.17
2018-02-20T02:09:09.148Z,45.20
2018-02-20T02:11:37.493Z,43.67
2018-02-20T02:14:05.835Z,45.47
2018-02-20T02:16:33.380Z,48.43
2018-02-20T02:19:00.961Z,51.53
2018-02-20T02:21:28.553Z,50.07
2018-02-20T02:23:56.099Z,49.63
2018-02-20T02:26:23.640Z,43.67
2018-02-20T02:28:51.205Z,45.40
2018-02-20T02:31:18.744Z,46.67
2018-02-20T02:33:46.225Z,52.90
2018-02-20T02:36:14.556Z,49.37
2018-02-20T02:38:42.135Z,45.03
2018-02-20T02:41:09.718Z,43.80
2018-02-20T02:43:37.346Z,48.63
2018-02-20T02:46:04.890Z,49.80
2018-02-20T02:48:32.436Z,49.77
2018-02-20T02:51:00.025Z,52.67
2018-02-20T02:53:27.565Z,47.60
2018-02-20T02:55:55.142Z,53.00
2018-02-20T02:58:22.687Z,52.73
2018-02-20T03:00:50.229Z,52.93
2018-02-20T03:03:17.780Z,51.47
2018-02-20T03:05:45.360Z,46.97
2018-02-20T03:08:13.724Z,46.30
2018-02-20T03:10:41.288Z,50.77
2018-02-20T03:13:08.860Z,49.73
2018-02-20T03:15:37.192Z,47.80
2018-02-20T03:18:04.768Z,51.43
2018-02-20T03:20:32.354Z,48.30
2018-02-20T03:22:59.892Z,51.10
2018-02-20T03:25:27.377Z,50.37
2018-02-20T03:27:54.992Z,46.83
2018-02-20T03:30:22.579Z,51.30
2018-02-20T03:32:50.891Z,49.27
2018-02-20T03:35:18.455Z,46.73
2018-02-20T03:37:46.028Z,49.97
2018-02-20T03:40:14.340Z,49.10
2018-02-20T03:42:41.966Z,49.33
2018-02-20T03:45:09.540Z,46.10
2018-02-20T03:47:37.088Z,50.00
2018-02-20T03:50:04.705Z,52.80
2018-02-20T03:52:32.243Z,48.87
2018-02-20T03:54:59.822Z,47.07
2018-02-20T03:57:27.912Z,50.10
2018-02-20T03:59:56.223Z,49.00
2018-02-20T04:02:23.766Z,48.03
2018-02-20T04:04:52.092Z,47.10
2018-02-20T04:07:19.643Z,53.80
2018-02-20T04:09:47.188Z,48.37
2018-02-20T04:12:14.801Z,45.47
2018-02-20T04:14:43.111Z,49.00
2018-02-20T04:17:10.660Z,47.63
2018-02-20T04:19:38.272Z,47.73
2018-02-20T04:22:06.141Z,48.87
2018-02-20T04:24:33.708Z,51.80
2018-02-20T04:27:02.502Z,50.80
2018-02-20T04:29:30.085Z,47.93
2018-02-20T04:31:57.653Z,49.37
2018-02-20T04:34:25.320Z,50.87
2018-02-20T04:36:52.897Z,47.27
2018-02-20T04:39:20.477Z,50.37
2018-02-20T04:41:48.206Z,49.83
2018-02-20T04:44:16.776Z,49.73
2018-02-20T04:46:45.116Z,52.17
2018-02-20T04:49:12.709Z,48.83
2018-02-20T04:51:40.248Z,57.90
2018-02-20T04:54:07.836Z,53.73
2018-02-20T04:56:35.717Z,54.57
2018-02-20T04:59:04.025Z,54.50
2018-02-20T05:01:31.568Z,52.40
2018-02-20T05:03:59.172Z,54.47
2018-02-20T05:06:26.720Z,56.63
2018-02-20T05:08:54.333Z,54.77
2018-02-20T05:11:21.942Z,58.93
2018-02-20T05:13:49.517Z,57.60
2018-02-20T05:16:17.056Z,52.93
2018-02-20T05:18:44.656Z,58.23
2018-02-20T05:21:12.203Z,54.57
2018-02-20T05:23:39.780Z,55.43
2018-02-20T05:26:07.443Z,59.53
2018-02-20T05:28:35.017Z,54.73
2018-02-20T05:31:04.359Z,57.07
2018-02-20T05:33:31.946Z,56.10
2018-02-20T05:35:59.524Z,52.23
2018-02-20T05:38:27.079Z,54.37
2018-02-20T05:40:54.641Z,52.57
2018-02-20T05:43:22.164Z,51.63
2018-02-20T05:45:50.476Z,60.77
2018-02-20T05:48:18.086Z,65.27
2018-02-20T05:50:45.677Z,59.03
2018-02-20T05:53:13.227Z,56.80
2018-02-20T05:55:40.836Z,51.20
2018-02-20T05:58:08.413Z,56.67
2018-02-20T06:00:35.999Z,51.33
2018-02-20T06:03:03.613Z,51.30
2018-02-20T06:05:31.156Z,53.10
2018-02-20T06:07:58.741Z,53.60
2018-02-20T06:10:26.323Z,53.03
2018-02-20T06:12:53.810Z,54.50
2018-02-20T06:15:21.359Z,52.93
2018-02-20T06:17:48.917Z,48.97
2018-02-20T06:20:16.470Z,49.50
2018-02-20T06:22:44.045Z,53.33
2018-02-20T06:25:13.429Z,58.23
2018-02-20T06:27:41.752Z,53.27
2018-02-20T06:30:09.296Z,51.97
2018-02-20T06:32:36.897Z,50.20
2018-02-20T06:35:04.432Z,52.13
2018-02-20T06:37:31.980Z,49.93
2018-02-20T06:39:59.600Z,49.47
2018-02-20T06:42:27.904Z,52.07
2018-02-20T06:44:55.488Z,50.57
2018-02-20T06:47:23.093Z,50.13
2018-02-20T06:49:50.631Z,46.83
2018-02-20T06:52:18.217Z,45.87
2018-02-20T06:54:45.833Z,48.67
2018-02-20T06:57:13.414Z,48.90
2018-02-20T06:59:40.964Z,46.87
2018-02-20T07:02:09.349Z,47.97
2018-02-20T07:04:37.735Z,44.73
2018-02-20T07:07:05.316Z,44.00
2018-02-20T07:09:32.913Z,47.40
2018-02-20T07:12:00.458Z,46.80
2018-02-20T07:14:27.996Z,49.47
2018-02-20T07:16:57.119Z,47.47
2018-02-20T07:19:24.704Z,46.70
2018-02-20T07:21:53.056Z,47.90
2018-02-20T07:24:21.716Z,45.37
2018-02-20T07:26:51.674Z,43.43
2018-02-20T07:29:19.264Z,42.97
2018-02-20T07:31:46.827Z,39.20
2018-02-20T07:34:15.135Z,38.23
2018-02-20T07:36:42.684Z,31.10
2018-02-20T07:39:10.308Z,30.20
2018-02-20T07:41:38.060Z,35.30
2018-02-20T07:44:05.538Z,31.03
2018-02-20T07:46:33.101Z,29.90
2018-02-20T07:49:01.408Z,32.37
2018-02-20T07:51:28.989Z,30.33
2018-02-20T07:53:56.591Z,31.93
2018-02-20T07:56:24.131Z,32.80
2018-02-20T07:58:51.706Z,31.67
2018-02-20T08:01:19.321Z,34.47
2018-02-20T08:03:46.868Z,35.33
2018-02-20T08:06:14.413Z,31.83
2018-02-20T08:08:41.989Z,34.70
2018-02-20T08:11:09.564Z,29.13
2018-02-20T08:13:37.809Z,33.20
2018-02-20T08:16:05.409Z,33.83
2018-02-20T08:18:32.947Z,34.60
2018-02-20T08:21:00.541Z,30.50
2018-02-20T08:23:28.086Z,29.10
2018-02-20T08:25:55.560Z,32.77
2018-02-20T08:28:23.902Z,32.53
2018-02-20T08:30:52.237Z,34.40
2018-02-20T08:33:19.819Z,33.77
2018-02-20T08:35:47.372Z,33.17
2018-02-20T08:38:14.951Z,33.43
2018-02-20T08:40:42.533Z,36.17
2018-02-20T08:43:10.072Z,35.13
2018-02-20T08:45:37.683Z,31.43
2018-02-20T08:48:05.291Z,30.30
2018-02-20T08:50:33.597Z,29.60
2018-02-20T08:53:01.201Z,28.07
2018-02-20T08:55:28.781Z,28.77
2018-02-20T08:57:56.359Z,26.60
2018-02-20T09:00:23.981Z,25.07
2018-02-20T09:02:51.561Z,27.90
2018-02-20T09:05:19.914Z,26.67
2018-02-20T09:07:48.450Z,27.67
2018-02-20T09:10:16.016Z,27.10
2018-02-20T09:12:43.535Z,26.73
2018-02-20T09:15:11.103Z,32.17
2018-02-20T09:17:38.647Z,30.07
2018-02-20T09:20:06.179Z,28.00
2018-02-20T09:22:33.731Z,28.83
2018-02-20T09:25:01.276Z,27.20
2018-02-20T09:27:28.858Z,27.50
2018-02-20T09:29:56.465Z,25.53
2018-02-20T09:32:23.999Z,27.47
2018-02-20T09:34:51.576Z,26.03
2018-02-20T09:37:20.570Z,26.33
2018-02-20T09:39:48.113Z,28.10
2018-02-20T09:42:15.639Z,24.40
2018-02-20T09:44:44.008Z,24.03
2018-02-20T09:47:12.311Z,24.47
2018-02-20T09:49:39.881Z,25.73
2018-02-20T09:52:08.330Z,29.70
2018-02-20T09:54:35.908Z,23.50
2018-02-20T09:57:04.249Z,27.47
2018-02-20T09:59:31.865Z,26.63
2018-02-20T10:01:59.408Z,24.07
2018-02-20T10:04:26.961Z,23.40
2018-02-20T10:06:54.555Z,31.23
2018-02-20T10:09:22.903Z,26.27
2018-02-20T10:11:50.489Z,24.67
2018-02-20T10:14:18.288Z,29.40
2018-02-20T10:16:47.092Z,29.10
2018-02-20T10:19:15.453Z,24.47
2018-02-20T10:21:43.791Z,27.00
2018-02-20T10:24:11.372Z,28.70
2018-02-20T10:26:38.919Z,23.83
2018-02-20T10:29:06.525Z,23.50
2018-02-20T10:31:34.327Z,25.07
2018-02-20T10:34:01.854Z,24.80
2018-02-20T10:36:29.459Z,27.43
2018-02-20T10:38:57.045Z,27.97
2018-02-20T10:41:24.624Z,24.90
2018-02-20T10:43:52.228Z,25.53
2018-02-20T10:46:19.812Z,27.27
2018-02-20T10:48:47.392Z,27.03
2018-02-20T10:51:15.756Z,27.43
2018-02-20T10:53:44.104Z,28.23
2018-02-20T10:56:11.694Z,26.67
2018-02-20T10:58:39.305Z,26.60
2018-02-20T11:01:06.927Z,29.93
2018-02-20T11:03:34.483Z,30.47
2018-02-20T11:06:02.063Z,28.20
2018-02-20T11:08:29.647Z,29.33
2018-02-20T11:10:57.223Z,28.30
2018-02-20T11:13:24.788Z,30.47
2018-02-20T11:15:53.142Z,27.27
2018-02-20T11:18:20.721Z,29.60
2018-02-20T11:20:48.332Z,30.60
2018-02-20T11:23:15.916Z,29.33
2018-02-20T11:25:43.489Z,28.83
2018-02-20T11:28:11.827Z,29.57
2018-02-20T11:30:39.372Z,32.67
2018-02-20T11:33:06.932Z,36.27
2018-02-20T11:35:34.846Z,30.57
2018-02-20T11:38:03.177Z,31.97
2018-02-20T11:40:30.757Z,33.00
2018-02-20T11:42:58.369Z,28.53
2018-02-20T11:45:25.904Z,28.83
2018-02-20T11:47:53.496Z,35.63
2018-02-20T11:50:21.124Z,36.53
2018-02-20T11:52:48.676Z,32.30
2018-02-20T11:55:16.252Z,33.10
2018-02-20T11:57:43.860Z,34.07
2018-02-20T12:00:12.168Z,34.90
2018-02-20T12:02:39.745Z,33.17
2018-02-20T12:05:07.325Z,35.83
2018-02-20T12:07:34.867Z,34.27
2018-02-20T12:10:02.445Z,33.77
2018-02-20T12:12:30.086Z,34.17
2018-02-20T12:14:57.623Z,35.73
2018-02-20T12:17:25.233Z,36.43
2018-02-20T12:19:52.868Z,32.37
2018-02-20T12:22:21.175Z,32.47
2018-02-20T12:24:48.712Z,33.23
2018-02-20T12:27:16.320Z,34.63
2018-02-20T12:29:43.880Z,37.00
2018-02-20T12:32:11.463Z,37.90
2018-02-20T12:34:39.196Z,35.30
2018-02-20T12:37:06.776Z,36.07
2018-02-20T12:39:34.315Z,35.00
2018-02-20T12:42:01.874Z,36.90
2018-02-20T12:44:29.421Z,36.17
2018-02-20T12:46:57.743Z,34.37
2018-02-20T12:49:25.361Z,34.07
2018-02-20T12:51:52.902Z,34.67
2018-02-20T12:54:20.481Z,35.73
2018-02-20T12:56:48.066Z,32.53
2018-02-20T12:59:15.701Z,33.13
2018-02-20T13:01:43.240Z,36.43
2018-02-20T13:04:11.116Z,34.70
2018-02-20T13:06:38.667Z,32.60
2018-02-20T13:09:06.232Z,30.73
2018-02-20T13:11:33.861Z,29.97
2018-02-20T13:14:01.463Z,30.80
2018-02-20T13:16:29.011Z,27.63
2018-02-20T13:18:57.778Z,32.10
2018-02-20T13:21:25.340Z,29.87
2018-02-20T13:23:53.644Z,31.50
2018-02-20T13:26:21.237Z,29.23
2018-02-20T13:28:48.816Z,26.57
2018-02-20T13:31:16.401Z,27.37
2018-02-20T13:33:44.110Z,28.60
2018-02-20T13:36:11.963Z,30.20
2018-02-20T13:38:39.539Z,28.30
2018-02-20T13:41:07.142Z,33.13
2018-02-20T13:43:34.680Z,36.10
2018-02-20T13:46:02.232Z,32.53
2018-02-20T13:48:29.841Z,36.90
2018-02-20T13:50:57.424Z,39.60
2018-02-20T13:53:25.018Z,43.07
2018-02-20T13:55:52.622Z,40.87
2018-02-20T13:58:20.221Z,45.13
2018-02-20T14:00:47.763Z,45.57
2018-02-20T14:03:15.323Z,42.73
2018-02-20T14:05:43.669Z,41.57
2018-02-20T14:08:11.249Z,42.07
2018-02-20T14:10:38.825Z,46.07
2018-02-20T14:13:06.476Z,42.97
2018-02-20T14:15:33.962Z,42.83
2018-02-20T14:18:01.552Z,43.57
2018-02-20T14:20:29.111Z,42.17
2018-02-20T14:22:56.638Z,39.23
2018-02-20T14:25:24.253Z,42.03
2018-02-20T14:27:52.564Z,41.07
2018-02-20T14:30:20.112Z,38.00
2018-02-20T14:32:47.737Z,42.40
2018-02-20T14:35:15.318Z,45.50
2018-02-20T14:37:43.012Z,43.03
2018-02-20T14:40:10.554Z,43.43
2018-02-20T14:42:38.129Z,46.10
2018-02-20T14:45:05.704Z,43.27
2018-02-20T14:47:33.305Z,40.63
2018-02-20T14:50:00.839Z,39.83
2018-02-20T14:52:28.409Z,39.07
2018-02-20T14:54:56.050Z,37.80
2018-02-20T14:57:23.596Z,35.63
2018-02-20T14:59:51.163Z,40.30
2018-02-20T15:02:18.743Z,38.00
2018-02-20T15:04:46.333Z,36.17
2018-02-20T15:07:13.951Z,39.20
2018-02-20T15:09:41.527Z,37.80
2018-02-20T15:12:09.082Z,35.97
2018-02-20T15:14:36.702Z,35.30
2018-02-20T15:17:05.088Z,37.17
2018-02-20T15:19:32.632Z,35.97
2018-02-20T15:22:00.184Z,38.17
2018-02-20T15:24:27.756Z,36.77
2018-02-20T15:26:55.343Z,37.77
2018-02-20T15:29:23.781Z,37.70
2018-02-20T15:31:51.360Z,39.70
2018-02-20T15:34:18.972Z,39.73
2018-02-20T15:36:46.454Z,41.20
2018-02-20T15:39:16.136Z,40.70
2018-02-20T15:41:43.655Z,42.57
2018-02-20T15:44:11.233Z,39.13
2018-02-20T15:46:38.828Z,39.73
2018-02-20T15:49:06.348Z,43.77
2018-02-20T15:51:33.884Z,41.80
2018-02-20T15:54:01.456Z,39.27
2018-02-20T15:56:29.036Z,43.53
2018-02-20T15:58:56.620Z,42.10
2018-02-20T16:01:24.230Z,38.50
2018-02-20T16:03:51.788Z,42.47
2018-02-20T16:06:19.384Z,41.37
2018-02-20T16:08:47.184Z,37.00
2018-02-20T16:11:14.735Z,40.10
2018-02-20T16:13:42.288Z,40.27
2018-02-20T16:16:20.609Z,40.97
2018-02-20T16:18:48.198Z,38.93
2018-02-20T16:21:15.773Z,39.93
2018-02-20T16:23:45.554Z,39.57
2018-02-20T16:26:13.110Z,37.93
2018-02-20T16:28:40.593Z,36.57
2018-02-20T16:31:08.196Z,39.77
2018-02-20T16:33:35.732Z,39.20
2018-02-20T16:36:03.255Z,40.37
2018-02-20T16:38:30.837Z,39.83
2018-02-20T16:40:59.180Z,35.03
2018-02-20T16:43:26.762Z,35.07
2018-02-20T16:45:54.349Z,38.80
2018-02-20T16:48:22.621Z,33.80
2018-02-20T16:50:50.153Z,38.70
2018-02-20T16:53:17.722Z,37.70
2018-02-20T16:55:45.329Z,41.93
2018-02-20T16:58:12.904Z,38.67
2018-02-20T17:00:40.468Z,39.07
2018-02-20T17:03:08.781Z,41.57
2018-02-20T17:05:37.132Z,43.43
2018-02-20T17:08:04.750Z,36.90
2018-02-20T17:10:33.089Z,41.67
2018-02-20T17:13:00.673Z,42.10
2018-02-20T17:15:28.304Z,39.27
2018-02-20T17:17:55.881Z,40.07
2018-02-20T17:20:23.465Z,35.90
2018-02-20T17:22:51.051Z,39.00
2018-02-20T17:25:18.629Z,36.70
2018-02-20T17:27:46.208Z,36.80
2018-02-20T17:30:14.075Z,37.83
2018-02-20T17:32:41.720Z,38.67
2018-02-20T17:35:09.285Z,34.97
2018-02-20T17:37:37.180Z,37.23
2018-02-20T17:40:04.781Z,35.33
2018-02-20T17:42:32.358Z,37.10
2018-02-20T17:44:59.936Z,34.37
2018-02-20T17:47:28.282Z,32.57
2018-02-20T17:49:55.758Z,33.47
2018-02-20T17:52:24.168Z,35.07
2018-02-20T17:54:51.740Z,31.03
2018-02-20T17:57:19.292Z,34.90
2018-02-20T17:59:47.647Z,37.03
2018-02-20T18:02:15.188Z,34.50
2018-02-20T18:04:42.732Z,32.17
2018-02-20T18:07:10.316Z,33.83
2018-02-20T18:09:37.855Z,31.00
2018-02-20T18:12:05.388Z,29.27
2018-02-20T18:14:32.911Z,30.50
2018-02-20T18:17:00.381Z,31.37
2018-02-20T18:19:28.692Z,33.13
2018-02-20T18:21:56.352Z,30.00
2018-02-20T18:24:24.721Z,31.60
2018-02-20T18:26:53.047Z,28.10
2018-02-20T18:29:20.623Z,28.57
2018-02-20T18:31:48.172Z,33.90
2018-02-20T18:34:16.487Z,28.77
2018-02-20T18:36:44.079Z,29.97
2018-02-20T18:39:11.680Z,28.63
2018-02-20T18:41:40.017Z,29.63
2018-02-20T18:44:07.589Z,29.47
2018-02-20T18:46:35.144Z,31.43
2018-02-20T18:49:02.740Z,30.03
2018-02-20T18:51:31.255Z,32.17
2018-02-20T18:53:59.559Z,30.13
2018-02-20T18:56:27.113Z,30.43
2018-02-20T18:58:54.693Z,34.90
2018-02-20T19:01:22.274Z,35.03
2018-02-20T19:03:49.880Z,35.33
2018-02-20T19:06:18.230Z,33.63
2018-02-20T19:08:45.818Z,33.43
2018-02-20T19:11:14.169Z,36.43
2018-02-20T19:13:41.712Z,32.00
2018-02-20T19:16:09.289Z,32.87
2018-02-20T19:18:36.905Z,34.83
2018-02-20T19:21:05.282Z,33.00
2018-02-20T19:23:34.272Z,31.63
2018-02-20T19:26:02.612Z,36.07
2018-02-20T19:28:30.197Z,34.87
2018-02-20T19:30:57.779Z,35.37
2018-02-20T19:33:25.373Z,33.60
2018-02-20T19:35:52.911Z,34.50
2018-02-20T19:38:21.232Z,34.37
2018-02-20T19:40:48.853Z,34.10
2018-02-20T19:43:16.393Z,34.43
2018-02-20T19:45:57.049Z,33.73
2018-02-20T19:48:25.389Z,36.63
2018-02-20T19:50:52.911Z,34.07
2018-02-20T19:53:20.488Z,35.70
2018-02-20T19:55:48.068Z,37.67
2018-02-20T19:58:15.698Z,38.40
2018-02-20T20:06:41.614Z,31.73
2018-02-20T20:09:09.953Z,34.53
2018-02-20T20:11:37.459Z,33.23
2018-02-20T20:14:05.795Z,33.33
2018-02-20T20:16:33.340Z,33.70
2018-02-20T20:19:00.919Z,35.43
2018-02-20T20:21:28.611Z,35.37
2018-02-20T20:23:56.154Z,30.83
2018-02-20T20:26:23.735Z,30.93
2018-02-20T20:28:51.516Z,29.33
2018-02-20T20:31:19.866Z,29.97
2018-02-20T20:33:47.446Z,28.27
2018-02-20T20:36:15.071Z,27.50
2018-02-20T20:38:42.618Z,25.17
2018-02-20T20:41:10.158Z,23.23
2018-02-20T20:43:38.545Z,25.20
2018-02-20T20:46:06.085Z,25.20
2018-02-20T20:48:33.711Z,26.03
2018-02-20T20:56:52.797Z,30.90
2018-02-20T21:00:59.777Z,27.57
2018-02-20T21:03:27.353Z,29.20
2018-02-20T21:05:54.922Z,32.50
2018-02-20T21:08:22.538Z,28.73
2018-02-20T21:10:50.146Z,30.33
2018-02-20T21:13:17.680Z,28.33
2018-02-20T21:15:46.000Z,30.50
2018-02-20T21:18:13.569Z,30.73
2018-02-20T21:20:41.142Z,32.73
2018-02-20T21:23:08.762Z,34.30
2018-02-20T21:25:37.073Z,31.87
2018-02-20T21:28:04.613Z,31.70
2018-02-20T21:30:32.227Z,34.43
2018-02-20T21:32:59.802Z,39.33
2018-02-20T21:35:27.341Z,36.73
2018-02-20T21:37:54.925Z,37.90
2018-02-20T21:40:22.464Z,33.97
2018-02-20T21:42:50.020Z,38.57
2018-02-20T21:45:17.742Z,37.00
2018-02-20T21:47:45.366Z,36.87
2018-02-20T21:50:12.942Z,36.97
2018-02-20T21:52:40.495Z,36.13
2018-02-20T21:55:08.066Z,37.77
2018-02-20T21:57:35.712Z,37.90
2018-02-20T22:00:03.335Z,36.33
2018-02-20T22:02:31.640Z,33.30
2018-02-20T22:04:59.241Z,40.80
2018-02-20T22:07:26.882Z,41.40
2018-02-20T22:09:54.436Z,40.13
2018-02-20T22:12:21.953Z,38.90
2018-02-20T22:14:49.572Z,40.47
2018-02-20T22:17:17.176Z,42.93
2018-02-20T22:19:44.698Z,40.73
2018-02-20T22:22:12.297Z,46.37
2018-02-20T22:24:39.840Z,46.27
2018-02-20T22:27:07.379Z,48.63
2018-02-20T22:29:34.964Z,44.73
2018-02-20T22:32:02.500Z,46.37
2018-02-20T22:34:30.119Z,47.10
2018-02-20T22:36:57.733Z,40.67
2018-02-20T22:39:25.318Z,45.43
2018-02-20T22:41:53.657Z,52.20
2018-02-20T22:44:21.134Z,52.40
2018-02-20T22:46:48.705Z,48.93
2018-02-20T22:49:16.322Z,49.43
2018-02-20T22:51:43.838Z,52.83
2018-02-20T22:54:11.408Z,47.67
2018-02-20T22:56:38.990Z,54.03
2018-02-20T22:59:07.404Z,50.87
2018-02-20T23:01:35.062Z,51.80
2018-02-20T23:04:02.673Z,53.73
2018-02-20T23:06:30.250Z,48.63
2018-02-20T23:08:57.829Z,50.23
2018-02-20T23:11:37.273Z,50.73
2018-02-20T23:14:05.590Z,48.73
2018-02-20T23:16:33.124Z,53.03
2018-02-20T23:19:00.733Z,53.77
2018-02-20T23:21:28.217Z,49.37
2018-02-20T23:23:55.841Z,53.60
2018-02-20T23:26:23.383Z,51.33
2018-02-20T23:28:50.926Z,48.43
2018-02-20T23:31:19.548Z,53.50
2018-02-20T23:33:47.114Z,50.10
2018-02-20T23:36:14.648Z,55.53
2018-02-20T23:38:43.022Z,49.70
2018-02-20T23:41:11.325Z,53.97
2018-02-20T23:43:38.843Z,51.97
2018-02-20T23:46:06.626Z,50.43
2018-02-20T23:48:34.972Z,51.43
2018-02-20T23:51:08.296Z,57.70
2018-02-20T23:53:35.812Z,57.93
2018-02-20T23:56:03.344Z,59.37
2018-02-20T23:58:31.687Z,54.67
